Аэропорт: Усть-Каменогорск. Усть-Каменогорск

ICAO: UASK

METAR:
2021-01-24 18:00:00
UASK 241800Z 33002MPS 7000 -SN OVC036 M27/M30 Q1043 R30/450442 NOSIG RMK QFE756/1009
METAR:
Информация по данной станции не доступна